createdAt,value
2023-04-22T00:00:26.557Z,34.54
2023-04-22T00:00:58.100Z,34.99
2023-04-22T00:01:29.657Z,35.09
2023-04-22T00:02:01.243Z,34.84
2023-04-22T00:02:32.951Z,34.85
2023-04-22T00:03:04.926Z,35.14
2023-04-22T00:03:36.948Z,35.00
2023-04-22T00:04:08.963Z,35.04
2023-04-22T00:04:41.252Z,34.89
2023-04-22T00:05:13.951Z,35.12
2023-04-22T00:05:46.679Z,35.02
2023-04-22T00:06:18.494Z,34.83
2023-04-22T00:06:50.066Z,34.79
2023-04-22T00:07:21.706Z,34.94
2023-04-22T00:07:53.317Z,34.70
2023-04-22T00:08:24.920Z,34.71
2023-04-22T00:08:56.565Z,34.72
2023-04-22T00:09:28.175Z,34.56
2023-04-22T00:09:59.712Z,34.59
2023-04-22T00:10:31.265Z,34.53
2023-04-22T00:11:03.002Z,34.81
2023-04-22T00:11:34.535Z,34.61
2023-04-22T00:12:06.204Z,34.57
2023-04-22T00:12:37.726Z,34.79
2023-04-22T00:13:09.320Z,34.52
2023-04-22T00:13:40.879Z,34.67
2023-04-22T00:14:12.458Z,34.52
2023-04-22T00:14:44.117Z,34.45
2023-04-22T00:15:15.766Z,34.56
2023-04-22T00:15:47.447Z,34.61
2023-04-22T00:16:19.140Z,34.60
2023-04-22T00:16:50.818Z,34.62
2023-04-22T00:17:22.398Z,34.50
2023-04-22T00:17:54.204Z,34.45
2023-04-22T00:18:25.832Z,34.71
2023-04-22T00:18:57.401Z,34.46
2023-04-22T00:19:29.082Z,34.51
2023-04-22T00:20:01.030Z,34.61
2023-04-22T00:20:32.627Z,34.56
2023-04-22T00:21:04.683Z,34.43
2023-04-22T00:21:36.271Z,34.63
2023-04-22T00:22:07.829Z,34.51
2023-04-22T00:22:39.432Z,34.51
2023-04-22T00:23:11.311Z,34.43
2023-04-22T00:23:42.932Z,34.66
2023-04-22T00:24:14.646Z,34.57
2023-04-22T00:24:46.281Z,34.38
2023-04-22T00:25:17.935Z,34.41
2023-04-22T00:25:49.574Z,34.61
2023-04-22T00:26:21.142Z,34.52
2023-04-22T00:26:52.858Z,34.40
2023-04-22T00:27:24.507Z,34.42
2023-04-22T00:27:56.068Z,34.33
2023-04-22T00:28:27.744Z,34.40
2023-04-22T00:28:59.313Z,34.49
2023-04-22T00:29:30.903Z,34.45
2023-04-22T00:30:02.525Z,34.42
2023-04-22T00:30:34.757Z,34.39
2023-04-22T00:31:06.569Z,34.52
2023-04-22T00:31:38.340Z,34.60
2023-04-22T00:32:09.942Z,34.63
2023-04-22T00:32:41.548Z,34.33
2023-04-22T00:33:13.261Z,34.54
2023-04-22T00:33:44.894Z,34.41
2023-04-22T00:34:16.527Z,34.16
2023-04-22T00:34:48.188Z,34.58
2023-04-22T00:35:19.868Z,34.32
2023-04-22T00:35:51.475Z,34.44
2023-04-22T00:36:23.118Z,34.37
2023-04-22T00:36:54.684Z,34.29
2023-04-22T00:37:26.358Z,34.46
2023-04-22T00:37:57.937Z,34.24
2023-04-22T00:38:29.465Z,34.24
2023-04-22T00:39:01.102Z,34.22
2023-04-22T00:39:32.672Z,34.27
2023-04-22T00:40:04.401Z,34.47
2023-04-22T00:40:36.022Z,34.52
2023-04-22T00:41:07.600Z,34.25
2023-04-22T00:41:39.482Z,34.38
2023-04-22T00:42:11.060Z,34.46
2023-04-22T00:42:43.194Z,34.42
2023-04-22T00:43:15.553Z,34.19
2023-04-22T00:43:47.209Z,34.27
2023-04-22T00:44:18.764Z,34.12
2023-04-22T00:44:50.467Z,34.48
2023-04-22T00:45:22.047Z,34.16
2023-04-22T00:45:53.632Z,34.53
2023-04-22T00:46:25.409Z,34.18
2023-04-22T00:46:57.099Z,34.18
2023-04-22T00:47:28.744Z,34.24
2023-04-22T00:48:00.461Z,34.17
2023-04-22T00:48:32.108Z,34.37
2023-04-22T00:49:03.698Z,34.22
2023-04-22T00:49:35.627Z,34.13
2023-04-22T00:50:07.686Z,34.20
2023-04-22T00:50:39.254Z,34.52
2023-04-22T00:51:10.811Z,34.18
2023-04-22T00:51:42.423Z,34.12
2023-04-22T00:52:14.003Z,34.42
2023-04-22T00:52:45.558Z,34.30
2023-04-22T00:53:17.175Z,34.39
2023-04-22T00:53:48.764Z,34.21
2023-04-22T00:54:20.322Z,34.16
2023-04-22T00:54:51.880Z,34.20
2023-04-22T00:55:23.581Z,34.38
2023-04-22T00:55:55.140Z,34.40
2023-04-22T00:56:26.692Z,34.19
2023-04-22T00:56:58.314Z,34.14
2023-04-22T00:57:29.971Z,34.12
2023-04-22T00:58:01.534Z,34.42
2023-04-22T00:58:33.153Z,34.29
2023-04-22T00:59:04.715Z,34.51
2023-04-22T00:59:36.341Z,34.30
2023-04-22T01:00:08.154Z,34.37
2023-04-22T01:00:39.809Z,34.22
2023-04-22T01:01:11.490Z,34.14
2023-04-22T01:01:43.114Z,34.10
2023-04-22T01:02:14.804Z,34.10
2023-04-22T01:02:47.232Z,34.14
2023-04-22T01:03:19.298Z,34.12
2023-04-22T01:03:51.287Z,34.36
2023-04-22T01:04:23.022Z,34.12
2023-04-22T01:04:54.690Z,34.12
2023-04-22T01:05:26.265Z,34.09
2023-04-22T01:05:57.841Z,34.10
2023-04-22T01:06:29.801Z,34.38
2023-04-22T01:07:01.563Z,34.32
2023-04-22T01:07:33.209Z,34.34
2023-04-22T01:08:04.774Z,34.20
2023-04-22T01:08:36.358Z,34.30
2023-04-22T01:09:10.608Z,34.02
2023-04-22T01:09:42.506Z,34.12
2023-04-22T01:10:14.347Z,34.37
2023-04-22T01:10:45.978Z,34.34
2023-04-22T01:11:17.653Z,34.24
2023-04-22T01:11:49.384Z,34.36
2023-04-22T01:12:21.145Z,34.36
2023-04-22T01:12:52.844Z,34.44
2023-04-22T01:13:24.489Z,34.06
2023-04-22T01:13:56.053Z,34.14
2023-04-22T01:14:27.653Z,34.09
2023-04-22T01:14:59.248Z,34.12
2023-04-22T01:15:30.916Z,34.16
2023-04-22T01:16:02.509Z,34.24
2023-04-22T01:16:34.232Z,34.28
2023-04-22T01:17:05.941Z,34.23
2023-04-22T01:17:37.661Z,34.09
2023-04-22T01:18:09.337Z,34.34
2023-04-22T01:18:40.977Z,34.24
2023-04-22T01:19:12.539Z,34.09
2023-04-22T01:20:49.267Z,34.08
2023-04-22T01:21:20.548Z,34.07
2023-04-22T01:21:51.840Z,34.17
2023-04-22T01:22:23.275Z,34.16
2023-04-22T01:22:54.963Z,34.02
2023-04-22T01:23:26.593Z,34.20
2023-04-22T01:23:58.247Z,34.20
2023-04-22T01:24:29.817Z,34.23
2023-04-22T01:25:01.997Z,34.17
2023-04-22T01:25:33.544Z,34.08
2023-04-22T01:26:05.597Z,34.05
2023-04-22T01:26:37.061Z,34.03
2023-04-22T01:27:08.950Z,34.00
2023-04-22T01:27:40.544Z,34.24
2023-04-22T01:28:12.058Z,34.18
2023-04-22T01:28:43.686Z,34.02
2023-04-22T01:29:15.292Z,34.22
2023-04-22T01:29:46.890Z,34.14
2023-04-22T01:30:18.490Z,34.10
2023-04-22T01:30:50.054Z,34.20
2023-04-22T01:31:21.682Z,34.07
2023-04-22T01:31:53.355Z,34.03
2023-04-22T01:32:25.121Z,33.94
2023-04-22T01:32:57.061Z,34.28
2023-04-22T01:33:28.806Z,34.18
2023-04-22T01:34:00.438Z,34.22
2023-04-22T01:34:32.194Z,34.26
2023-04-22T01:35:03.991Z,33.81
2023-04-22T01:35:35.582Z,34.11
2023-04-22T01:36:07.318Z,34.19
2023-04-22T01:36:38.812Z,34.18
2023-04-22T01:37:10.422Z,34.35
2023-04-22T01:37:41.864Z,34.25
2023-04-22T01:38:13.712Z,33.98
2023-04-22T01:38:45.082Z,34.00
2023-04-22T01:39:16.614Z,33.98
2023-04-22T01:39:48.159Z,34.00
2023-04-22T01:40:19.585Z,34.16
2023-04-22T01:40:51.262Z,34.26
2023-04-22T01:41:22.762Z,33.98
2023-04-22T01:41:54.205Z,34.01
2023-04-22T01:42:25.634Z,34.21
2023-04-22T01:42:57.136Z,34.27
2023-04-22T01:43:28.888Z,34.01
2023-04-22T01:44:00.240Z,33.93
2023-04-22T01:44:31.660Z,33.92
2023-04-22T01:45:03.563Z,34.23
2023-04-22T01:45:35.062Z,33.99
2023-04-22T01:46:06.702Z,33.94
2023-04-22T01:46:38.127Z,34.19
2023-04-22T01:47:09.534Z,33.94
2023-04-22T01:47:41.029Z,34.06
2023-04-22T01:48:12.512Z,34.02
2023-04-22T01:48:43.970Z,33.88
2023-04-22T01:49:15.424Z,34.13
2023-04-22T01:49:46.859Z,34.11
2023-04-22T01:50:18.426Z,33.95
2023-04-22T01:50:49.893Z,33.94
2023-04-22T01:51:21.380Z,33.78
2023-04-22T01:51:52.853Z,34.03
2023-04-22T01:52:24.326Z,33.76
2023-04-22T01:52:56.060Z,33.94
2023-04-22T01:53:27.577Z,34.00
2023-04-22T01:53:59.004Z,33.93
2023-04-22T01:54:30.459Z,33.92
2023-04-22T01:55:01.922Z,33.87
2023-04-22T01:55:33.351Z,34.11
2023-04-22T01:56:04.905Z,33.85
2023-04-22T01:56:36.780Z,34.15
2023-04-22T01:57:09.020Z,34.12
2023-04-22T01:57:40.422Z,34.08
2023-04-22T01:58:11.874Z,34.00
2023-04-22T01:58:43.471Z,34.01
2023-04-22T01:59:14.888Z,34.08
2023-04-22T01:59:46.336Z,34.00
2023-04-22T02:00:18.009Z,33.93
2023-04-22T02:00:49.452Z,34.02
2023-04-22T02:01:20.970Z,33.91
2023-04-22T02:01:52.642Z,33.87
2023-04-22T02:02:24.217Z,34.16
2023-04-22T02:02:55.707Z,33.98
2023-04-22T02:03:27.229Z,33.89
2023-04-22T02:03:58.748Z,33.82
2023-04-22T02:04:30.242Z,33.94
2023-04-22T02:05:01.674Z,33.73
2023-04-22T02:05:33.223Z,33.78
2023-04-22T02:06:04.717Z,33.83
2023-04-22T02:06:36.247Z,34.20
2023-04-22T02:07:07.664Z,33.78
2023-04-22T02:07:39.177Z,33.77
2023-04-22T02:08:10.616Z,33.79
2023-04-22T02:08:42.084Z,33.89
2023-04-22T02:09:13.441Z,33.91
2023-04-22T02:09:44.922Z,33.77
2023-04-22T02:10:16.363Z,33.74
2023-04-22T02:10:47.838Z,33.77
2023-04-22T02:11:19.211Z,33.85
2023-04-22T02:11:50.638Z,33.79
2023-04-22T02:12:22.067Z,33.78
2023-04-22T02:12:53.452Z,33.73
2023-04-22T02:13:24.816Z,33.91
2023-04-22T02:13:56.371Z,33.95
2023-04-22T02:14:27.851Z,34.13
2023-04-22T02:14:59.273Z,33.97
2023-04-22T02:15:30.915Z,33.88
2023-04-22T02:16:02.515Z,33.83
2023-04-22T02:16:34.146Z,33.82
2023-04-22T02:17:05.649Z,34.02
2023-04-22T02:17:37.146Z,34.05
2023-04-22T02:18:08.602Z,33.78
2023-04-22T02:18:40.059Z,33.89
2023-04-22T02:19:11.946Z,33.82
2023-04-22T02:19:43.810Z,33.84
2023-04-22T02:20:15.560Z,34.00
2023-04-22T02:20:47.108Z,33.70
2023-04-22T02:21:18.556Z,33.80
2023-04-22T02:21:50.091Z,33.94
2023-04-22T02:22:22.099Z,33.92
2023-04-22T02:22:53.564Z,34.07
2023-04-22T02:23:25.257Z,34.16
2023-04-22T02:23:56.717Z,34.04
2023-04-22T02:24:28.202Z,33.88
2023-04-22T02:24:59.762Z,33.93
2023-04-22T02:25:31.194Z,33.81
2023-04-22T02:26:02.618Z,33.92
2023-04-22T02:26:34.033Z,33.81
2023-04-22T02:27:05.552Z,33.77
2023-04-22T02:27:37.020Z,33.99
2023-04-22T02:28:08.465Z,34.00
2023-04-22T02:28:39.973Z,34.04
2023-04-22T02:29:11.446Z,34.01
2023-04-22T02:29:42.966Z,34.08
2023-04-22T02:30:14.655Z,33.72
2023-04-22T02:30:46.281Z,33.66
2023-04-22T02:31:17.760Z,33.73
2023-04-22T02:31:49.415Z,34.02
2023-04-22T02:32:21.028Z,33.91
2023-04-22T02:32:52.685Z,34.04
2023-04-22T02:33:24.118Z,34.09
2023-04-22T02:33:55.721Z,33.93
2023-04-22T02:34:27.219Z,33.66
2023-04-22T02:34:58.837Z,33.66
2023-04-22T02:35:30.331Z,33.83
2023-04-22T02:36:01.930Z,33.71
2023-04-22T02:36:33.424Z,34.10
2023-04-22T02:37:04.937Z,34.17
2023-04-22T02:37:36.492Z,34.04
2023-04-22T02:38:07.967Z,33.75
2023-04-22T02:38:39.401Z,33.77
2023-04-22T02:39:10.913Z,33.76
2023-04-22T02:39:42.556Z,33.78
2023-04-22T02:40:14.067Z,33.89
2023-04-22T02:40:45.518Z,33.98
2023-04-22T02:41:17.001Z,33.78
2023-04-22T02:41:48.565Z,33.91
2023-04-22T02:42:20.135Z,33.70
2023-04-22T02:42:51.669Z,33.99
2023-04-22T02:43:23.128Z,33.77
2023-04-22T02:43:54.600Z,33.58
2023-04-22T02:44:26.050Z,33.69
2023-04-22T02:44:57.484Z,33.71
2023-04-22T02:45:29.016Z,33.83
2023-04-22T02:46:00.435Z,33.81
2023-04-22T02:46:31.870Z,33.70
2023-04-22T02:47:03.459Z,33.71
2023-04-22T02:47:35.001Z,33.70
2023-04-22T02:48:06.564Z,33.91
2023-04-22T02:48:38.063Z,33.74
2023-04-22T02:49:09.463Z,33.73
2023-04-22T02:49:41.433Z,33.81
2023-04-22T02:50:13.070Z,33.57
2023-04-22T02:50:44.490Z,33.54
2023-04-22T02:51:15.969Z,33.72
2023-04-22T02:51:47.419Z,33.69
2023-04-22T02:52:18.815Z,33.78
2023-04-22T02:52:50.165Z,33.92
2023-04-22T02:53:21.671Z,33.78
2023-04-22T02:53:53.109Z,33.76
2023-04-22T02:54:24.562Z,33.58
2023-04-22T02:54:56.047Z,33.68
2023-04-22T02:55:27.502Z,33.57
2023-04-22T02:55:58.947Z,33.91
2023-04-22T02:56:30.435Z,33.70
2023-04-22T02:57:01.966Z,33.91
2023-04-22T02:57:33.497Z,33.94
2023-04-22T02:58:05.129Z,33.70
2023-04-22T02:58:36.678Z,33.69
2023-04-22T02:59:08.119Z,33.85
2023-04-22T02:59:39.942Z,33.69
2023-04-22T03:00:11.676Z,33.71
2023-04-22T03:00:43.149Z,33.66
2023-04-22T03:01:14.630Z,33.82
2023-04-22T03:01:46.135Z,33.66
2023-04-22T03:02:17.738Z,33.66
2023-04-22T03:02:49.313Z,33.72
2023-04-22T03:03:20.967Z,33.83
2023-04-22T03:03:52.641Z,33.70
2023-04-22T03:04:24.377Z,33.72
2023-04-22T03:04:56.047Z,33.95
2023-04-22T03:05:27.463Z,33.70
2023-04-22T03:05:58.964Z,33.90
2023-04-22T03:06:30.447Z,33.82
2023-04-22T03:07:01.886Z,33.70
2023-04-22T03:07:33.299Z,33.91
2023-04-22T03:08:04.684Z,33.94
2023-04-22T03:08:36.149Z,33.71
2023-04-22T03:09:07.697Z,33.92
2023-04-22T03:09:39.501Z,33.69
2023-04-22T03:10:11.173Z,33.58
2023-04-22T03:10:42.655Z,33.78
2023-04-22T03:11:14.227Z,33.69
2023-04-22T03:11:45.820Z,33.69
2023-04-22T03:12:17.251Z,33.78
2023-04-22T03:12:48.663Z,33.76
2023-04-22T03:13:20.064Z,33.72
2023-04-22T03:13:51.542Z,33.72
2023-04-22T03:14:23.134Z,33.69
2023-04-22T03:14:54.598Z,33.62
2023-04-22T03:15:26.061Z,33.71
2023-04-22T03:15:57.529Z,33.73
2023-04-22T03:16:29.056Z,33.92
2023-04-22T03:17:00.570Z,33.73
2023-04-22T03:17:32.125Z,33.70
2023-04-22T03:18:03.735Z,33.73
2023-04-22T03:18:35.166Z,33.84
2023-04-22T03:19:06.633Z,33.63
2023-04-22T03:19:38.327Z,33.64
2023-04-22T03:20:10.348Z,33.91
2023-04-22T03:20:41.746Z,33.83
2023-04-22T03:21:13.219Z,33.64
2023-04-22T03:21:44.611Z,33.97
2023-04-22T03:22:16.140Z,33.74
2023-04-22T03:22:47.598Z,33.76
2023-04-22T03:23:18.987Z,33.52
2023-04-22T03:23:50.449Z,33.64
2023-04-22T03:24:21.900Z,33.82
2023-04-22T03:24:53.342Z,33.79
2023-04-22T03:25:24.839Z,33.81
2023-04-22T03:25:56.251Z,33.61
2023-04-22T03:26:27.674Z,33.66
2023-04-22T03:26:59.133Z,33.64
2023-04-22T03:27:30.668Z,33.88
2023-04-22T03:28:02.390Z,33.80
2023-04-22T03:28:33.918Z,33.83
2023-04-22T03:29:05.422Z,33.59
2023-04-22T03:29:36.846Z,33.51
2023-04-22T03:30:08.495Z,33.63
2023-04-22T03:30:40.055Z,33.63
2023-04-22T03:31:11.484Z,33.60
2023-04-22T03:31:42.990Z,33.70
2023-04-22T03:32:14.776Z,33.71
2023-04-22T03:32:46.517Z,34.03
2023-04-22T03:33:18.167Z,33.68
2023-04-22T03:33:49.617Z,33.94
2023-04-22T03:34:21.034Z,33.83
2023-04-22T03:34:52.479Z,33.76
2023-04-22T03:35:23.946Z,33.80
2023-04-22T03:35:55.359Z,33.88
2023-04-22T03:36:27.300Z,34.02
2023-04-22T03:36:58.773Z,33.70
2023-04-22T03:37:30.219Z,33.50
2023-04-22T03:38:01.721Z,33.71
2023-04-22T03:38:33.243Z,33.60
2023-04-22T03:39:04.755Z,33.68
2023-04-22T03:39:36.519Z,33.55
2023-04-22T03:40:08.513Z,33.88
2023-04-22T03:40:39.938Z,34.00
2023-04-22T03:41:11.388Z,33.58
2023-04-22T03:41:42.785Z,33.61
2023-04-22T03:42:14.300Z,33.80
2023-04-22T03:42:45.652Z,33.73
2023-04-22T03:43:17.203Z,33.62
2023-04-22T03:43:48.593Z,33.79
2023-04-22T03:44:20.012Z,33.67
2023-04-22T03:44:51.459Z,33.67
2023-04-22T03:45:22.870Z,33.62
2023-04-22T03:45:54.358Z,33.61
2023-04-22T03:46:25.985Z,33.66
2023-04-22T03:46:57.533Z,33.88
2023-04-22T03:47:29.477Z,33.97
2023-04-22T03:48:01.044Z,33.83
2023-04-22T03:48:32.654Z,33.61
2023-04-22T03:49:04.131Z,33.86
2023-04-22T03:49:35.589Z,33.91
2023-04-22T03:50:07.199Z,33.55
2023-04-22T03:50:38.788Z,33.86
2023-04-22T03:51:10.254Z,33.66
2023-04-22T03:51:41.764Z,33.62
2023-04-22T03:52:13.210Z,33.60
2023-04-22T03:52:44.642Z,34.04
2023-04-22T03:53:16.119Z,33.67
2023-04-22T03:53:47.612Z,33.56
2023-04-22T03:54:19.083Z,33.72
2023-04-22T03:54:50.515Z,33.85
2023-04-22T03:55:22.091Z,33.97
2023-04-22T03:55:53.542Z,33.86
2023-04-22T03:56:25.028Z,33.72
2023-04-22T03:56:56.592Z,33.81
2023-04-22T03:57:28.156Z,33.66
2023-04-22T03:57:59.682Z,33.62
2023-04-22T03:58:31.152Z,33.54
2023-04-22T03:59:02.706Z,33.63
2023-04-22T03:59:34.130Z,33.53
2023-04-22T04:00:05.930Z,33.59
2023-04-22T04:00:37.489Z,33.87
2023-04-22T04:01:08.997Z,33.83
2023-04-22T04:01:40.513Z,33.64
2023-04-22T04:02:12.060Z,33.98
2023-04-22T04:02:43.772Z,33.73
2023-04-22T04:03:15.635Z,33.85
2023-04-22T04:03:47.528Z,33.86
2023-04-22T04:04:19.435Z,33.65
2023-04-22T04:04:51.698Z,33.71
2023-04-22T04:05:23.582Z,33.86
2023-04-22T04:05:55.469Z,33.67
2023-04-22T04:06:27.015Z,33.65
2023-04-22T04:06:58.494Z,33.69
2023-04-22T04:07:30.049Z,33.57
2023-04-22T04:08:01.598Z,33.60
2023-04-22T04:08:33.110Z,33.79
2023-04-22T04:09:04.729Z,33.64
2023-04-22T04:09:36.245Z,33.72
2023-04-22T04:10:08.073Z,33.62
2023-04-22T04:10:39.581Z,33.85
2023-04-22T04:11:10.988Z,33.65
2023-04-22T04:11:42.435Z,33.78
2023-04-22T04:12:13.971Z,33.86
2023-04-22T04:12:45.556Z,33.94
2023-04-22T04:13:17.012Z,33.73
2023-04-22T04:13:48.548Z,33.66
2023-04-22T04:14:19.995Z,33.80
2023-04-22T04:14:51.381Z,33.73
2023-04-22T04:15:22.807Z,33.85
2023-04-22T04:15:54.281Z,33.73
2023-04-22T04:16:25.938Z,33.68
2023-04-22T04:16:57.415Z,33.84
2023-04-22T04:17:29.116Z,33.58
2023-04-22T04:18:00.669Z,33.88
2023-04-22T04:18:32.233Z,33.82
2023-04-22T04:19:03.828Z,33.62
2023-04-22T04:19:36.089Z,33.69
2023-04-22T04:20:07.619Z,33.70
2023-04-22T04:20:39.107Z,33.68
2023-04-22T04:21:10.602Z,33.92
2023-04-22T04:21:42.034Z,33.88
2023-04-22T04:22:13.500Z,33.60
2023-04-22T04:22:44.936Z,33.80
2023-04-22T04:23:16.871Z,33.66
2023-04-22T04:23:48.334Z,33.80
2023-04-22T04:24:19.799Z,33.63
2023-04-22T04:24:51.227Z,33.66
2023-04-22T04:25:22.804Z,33.83
2023-04-22T04:25:54.367Z,33.74
2023-04-22T04:26:25.743Z,33.58
2023-04-22T04:26:57.128Z,33.93
2023-04-22T04:27:28.507Z,33.63
2023-04-22T04:28:00.001Z,33.87
2023-04-22T04:28:31.431Z,33.54
2023-04-22T04:29:02.860Z,33.72
2023-04-22T04:29:34.762Z,33.85
2023-04-22T04:30:06.616Z,33.67
2023-04-22T04:30:38.087Z,33.87
2023-04-22T04:31:09.594Z,33.80
2023-04-22T04:31:41.363Z,33.85
2023-04-22T04:32:12.871Z,33.69
2023-04-22T04:32:44.307Z,33.66
2023-04-22T04:33:15.742Z,33.63
2023-04-22T04:33:47.159Z,33.83
2023-04-22T04:34:18.613Z,33.65
2023-04-22T04:34:50.063Z,33.96
2023-04-22T04:35:21.434Z,33.59
2023-04-22T04:35:52.820Z,33.85
2023-04-22T04:36:24.360Z,33.90
2023-04-22T04:36:55.768Z,33.80
2023-04-22T04:37:27.199Z,33.64
2023-04-22T04:37:58.680Z,33.62
2023-04-22T04:38:30.084Z,33.86
2023-04-22T04:39:01.504Z,33.47
2023-04-22T04:39:32.961Z,33.97
2023-04-22T04:40:04.781Z,33.84
2023-04-22T04:40:36.266Z,33.76
2023-04-22T04:41:07.706Z,33.89
2023-04-22T04:41:39.184Z,34.02
2023-04-22T04:42:10.678Z,33.60
2023-04-22T04:42:42.182Z,33.83
2023-04-22T04:43:13.659Z,33.66
2023-04-22T04:43:45.132Z,33.55
2023-04-22T04:44:16.576Z,33.71
2023-04-22T04:44:48.128Z,33.69
2023-04-22T04:45:19.824Z,33.89
2023-04-22T04:45:51.801Z,33.58
2023-04-22T04:46:23.405Z,33.81
2023-04-22T04:46:55.169Z,33.85
2023-04-22T04:47:26.685Z,33.91
2023-04-22T04:47:58.265Z,33.83
2023-04-22T04:48:29.802Z,33.63
2023-04-22T04:49:02.253Z,33.62
2023-04-22T04:49:33.649Z,33.64
2023-04-22T04:50:05.323Z,33.59
2023-04-22T04:50:36.755Z,33.67
2023-04-22T04:51:08.362Z,33.65
2023-04-22T04:51:39.739Z,33.95
2023-04-22T04:52:11.135Z,33.63
2023-04-22T04:52:42.616Z,33.74
2023-04-22T04:53:14.033Z,33.94
2023-04-22T04:53:45.557Z,33.64
2023-04-22T04:54:16.994Z,33.66
2023-04-22T04:54:48.335Z,33.86
2023-04-22T04:55:19.745Z,33.78
2023-04-22T04:55:51.217Z,33.68
2023-04-22T04:56:22.751Z,33.88
2023-04-22T04:56:54.175Z,33.60
2023-04-22T04:57:25.620Z,33.83
2023-04-22T04:57:57.078Z,33.78
2023-04-22T04:58:28.541Z,33.60
2023-04-22T04:59:00.018Z,33.65
2023-04-22T04:59:31.399Z,33.90
2023-04-22T05:00:02.975Z,33.75
2023-04-22T05:00:34.430Z,33.95
2023-04-22T05:01:05.890Z,33.67
2023-04-22T05:01:37.390Z,33.64
2023-04-22T05:02:09.181Z,33.57
2023-04-22T05:02:41.113Z,33.90
2023-04-22T05:03:12.850Z,33.75
2023-04-22T05:03:44.574Z,33.69
2023-04-22T05:04:16.477Z,33.75
2023-04-22T05:04:48.390Z,33.78
2023-04-22T05:05:19.996Z,33.76
2023-04-22T05:05:51.412Z,33.84
2023-04-22T05:06:22.909Z,33.95
2023-04-22T05:06:54.368Z,33.90
2023-04-22T05:07:25.839Z,33.80
2023-04-22T05:07:57.334Z,33.54
2023-04-22T05:08:28.733Z,33.65
2023-04-22T05:09:00.173Z,33.69
2023-04-22T05:09:31.669Z,33.72
2023-04-22T05:10:03.456Z,33.69
2023-04-22T05:10:34.940Z,33.67
2023-04-22T05:11:06.415Z,33.68
2023-04-22T05:11:37.837Z,33.89
2023-04-22T05:12:09.272Z,33.80
2023-04-22T05:12:40.782Z,33.96
2023-04-22T05:13:12.209Z,33.61
2023-04-22T05:13:43.970Z,33.66
2023-04-22T05:14:15.443Z,33.92
2023-04-22T05:14:46.965Z,33.82
2023-04-22T05:15:18.444Z,33.90
2023-04-22T05:15:49.890Z,33.69
2023-04-22T05:16:21.309Z,33.82
2023-04-22T05:16:52.856Z,33.79
2023-04-22T05:17:24.343Z,33.60
2023-04-22T05:17:55.799Z,33.95
2023-04-22T05:18:27.262Z,33.93
2023-04-22T05:18:58.702Z,33.92
2023-04-22T05:19:30.105Z,33.68
2023-04-22T05:20:01.579Z,33.48
2023-04-22T05:20:35.859Z,33.92
2023-04-22T05:21:07.702Z,33.77
2023-04-22T05:21:39.117Z,33.77
2023-04-22T05:22:10.601Z,33.86
2023-04-22T05:22:42.081Z,33.84
2023-04-22T05:23:13.539Z,33.64
2023-04-22T05:23:44.968Z,33.71
2023-04-22T05:24:16.437Z,33.69
2023-04-22T05:24:47.853Z,33.52
2023-04-22T05:25:19.332Z,33.88
2023-04-22T05:25:52.841Z,33.92
2023-04-22T05:26:24.905Z,33.65
2023-04-22T05:26:56.435Z,33.65
2023-04-22T05:27:27.779Z,34.03
2023-04-22T05:27:59.213Z,33.82
2023-04-22T05:28:30.640Z,33.70
2023-04-22T05:29:02.128Z,33.69
2023-04-22T05:29:33.565Z,33.67
2023-04-22T05:30:05.363Z,33.71
2023-04-22T05:30:36.927Z,33.99
2023-04-22T05:31:08.325Z,33.66
2023-04-22T05:31:39.726Z,33.91
2023-04-22T05:32:11.158Z,33.94
2023-04-22T05:32:42.809Z,33.94
2023-04-22T05:33:14.504Z,33.82
2023-04-22T05:33:45.922Z,33.81
2023-04-22T05:34:17.433Z,33.89
2023-04-22T05:34:48.940Z,33.94
2023-04-22T05:35:20.357Z,33.66
2023-04-22T05:35:52.387Z,33.86
2023-04-22T05:36:23.977Z,33.79
2023-04-22T05:36:55.376Z,33.82
2023-04-22T05:37:26.818Z,33.65
2023-04-22T05:37:58.277Z,33.71
2023-04-22T05:38:29.719Z,33.70
2023-04-22T05:39:01.180Z,33.61
2023-04-22T05:39:32.673Z,33.87
2023-04-22T05:40:04.350Z,33.69
2023-04-22T05:40:35.825Z,33.79
2023-04-22T05:41:07.336Z,33.65
2023-04-22T05:41:38.854Z,34.03
2023-04-22T05:42:10.561Z,33.86
2023-04-22T05:42:42.017Z,33.96
2023-04-22T05:43:13.471Z,33.83
2023-04-22T05:43:44.920Z,33.67
2023-04-22T05:44:16.445Z,33.60
2023-04-22T05:44:47.949Z,33.70
2023-04-22T05:45:19.397Z,33.76
2023-04-22T05:45:50.958Z,33.98
2023-04-22T05:46:22.788Z,33.80
2023-04-22T05:46:54.306Z,33.65
2023-04-22T05:47:25.975Z,33.77
2023-04-22T05:47:57.665Z,33.94
2023-04-22T05:48:29.259Z,33.86
2023-04-22T05:49:00.815Z,33.71
2023-04-22T05:49:32.319Z,33.73
2023-04-22T05:50:03.882Z,33.65
2023-04-22T05:50:35.299Z,34.01
2023-04-22T05:51:06.829Z,33.69
2023-04-22T05:51:38.422Z,33.55
2023-04-22T05:52:09.932Z,33.62
2023-04-22T05:52:41.283Z,33.64
2023-04-22T05:53:12.712Z,33.63
2023-04-22T05:53:44.186Z,33.89
2023-04-22T05:54:15.712Z,33.67
2023-04-22T05:54:47.224Z,33.90
2023-04-22T05:55:18.788Z,33.62
2023-04-22T05:55:50.299Z,33.57
2023-04-22T05:56:21.728Z,33.76
2023-04-22T05:56:53.241Z,34.00
2023-04-22T05:57:24.863Z,33.76
2023-04-22T05:57:56.330Z,33.56
2023-04-22T05:58:27.761Z,33.77
2023-04-22T05:58:59.287Z,33.82
2023-04-22T05:59:30.657Z,34.08
2023-04-22T06:00:02.622Z,34.00
2023-04-22T06:00:34.105Z,33.89
2023-04-22T06:01:05.626Z,33.67
2023-04-22T06:01:37.097Z,33.97
2023-04-22T06:02:08.758Z,34.03
2023-04-22T06:02:40.559Z,33.75
2023-04-22T06:03:12.286Z,33.80
2023-04-22T06:03:44.023Z,33.68
2023-04-22T06:04:15.905Z,33.75
2023-04-22T06:04:47.756Z,33.65
2023-04-22T06:05:19.653Z,33.68
2023-04-22T06:05:51.338Z,34.02
2023-04-22T06:06:22.756Z,33.72
2023-04-22T06:06:54.159Z,33.82
2023-04-22T06:07:25.671Z,33.91
2023-04-22T06:07:57.138Z,33.72
2023-04-22T06:08:29.831Z,33.66
2023-04-22T06:09:01.436Z,33.83
2023-04-22T06:09:32.883Z,33.91
2023-04-22T06:10:05.360Z,33.95
2023-04-22T06:10:38.930Z,33.91
2023-04-22T06:11:10.368Z,33.75
2023-04-22T06:11:41.769Z,33.85
2023-04-22T06:12:13.282Z,33.80
2023-04-22T06:12:44.733Z,33.84
2023-04-22T06:13:16.128Z,33.87
2023-04-22T06:13:47.595Z,33.74
2023-04-22T06:14:19.063Z,33.97
2023-04-22T06:14:50.481Z,34.01
2023-04-22T06:15:21.996Z,33.66
2023-04-22T06:15:53.596Z,33.71
2023-04-22T06:16:25.259Z,33.70
2023-04-22T06:16:56.741Z,33.94
2023-04-22T06:17:28.319Z,33.74
2023-04-22T06:18:00.052Z,33.68
2023-04-22T06:18:31.543Z,33.94
2023-04-22T06:19:03.057Z,33.92
2023-04-22T06:19:34.444Z,33.69
2023-04-22T06:20:06.216Z,33.88
2023-04-22T06:20:37.741Z,33.55
2023-04-22T06:21:09.343Z,33.74
2023-04-22T06:21:40.815Z,33.81
2023-04-22T06:22:12.384Z,33.89
2023-04-22T06:22:43.889Z,33.76
2023-04-22T06:23:15.393Z,33.95
2023-04-22T06:23:46.839Z,33.82
2023-04-22T06:24:18.375Z,33.93
2023-04-22T06:24:50.049Z,33.88
2023-04-22T06:25:21.482Z,33.71
2023-04-22T06:25:52.880Z,33.62
2023-04-22T06:26:24.583Z,33.77
2023-04-22T06:26:56.022Z,33.90
2023-04-22T06:27:27.426Z,33.77
2023-04-22T06:27:58.978Z,33.93
2023-04-22T06:28:30.513Z,33.76
2023-04-22T06:29:02.174Z,33.97
2023-04-22T06:29:33.604Z,33.99
2023-04-22T06:30:05.574Z,34.04
2023-04-22T06:30:37.075Z,33.93
2023-04-22T06:31:08.479Z,33.95
2023-04-22T06:31:40.063Z,33.89
2023-04-22T06:32:11.580Z,33.98
2023-04-22T06:32:43.160Z,33.94
2023-04-22T06:33:14.689Z,33.96
2023-04-22T06:33:46.439Z,33.77
2023-04-22T06:34:17.956Z,33.91
2023-04-22T06:34:49.335Z,33.90
2023-04-22T06:35:20.955Z,33.84
2023-04-22T06:35:52.446Z,33.75
2023-04-22T06:36:24.163Z,33.84
2023-04-22T06:36:55.675Z,33.83
2023-04-22T06:37:27.068Z,33.89
2023-04-22T06:37:58.567Z,33.78
2023-04-22T06:38:30.013Z,33.71
2023-04-22T06:39:01.502Z,33.75
2023-04-22T06:39:32.995Z,33.94
2023-04-22T06:40:04.608Z,33.77
2023-04-22T06:40:36.104Z,33.99
2023-04-22T06:41:07.545Z,33.86
2023-04-22T06:41:40.941Z,33.72
2023-04-22T06:42:13.386Z,33.70
2023-04-22T06:42:44.852Z,33.83
2023-04-22T06:43:16.242Z,33.94
2023-04-22T06:43:47.692Z,33.83
2023-04-22T06:44:19.109Z,33.92
2023-04-22T06:44:50.572Z,33.79
2023-04-22T06:45:21.988Z,33.66
2023-04-22T06:45:53.472Z,33.85
2023-04-22T06:46:24.959Z,33.99
2023-04-22T06:46:57.920Z,33.81
2023-04-22T06:47:29.914Z,33.73
2023-04-22T06:48:01.553Z,33.67